Time;durP1;ratioP1;P1;durP2;ratioP2;P2;SDS_P1;SDS_P2;PMS_P1;PMS_P2;Temp;Humidity;BMP_temperature;BMP_pressure;BME280_temperature;BME280_humidity;BME280_pressure;Samples;Min_cycle;Max_cycle;Signal;HPM_P1;HPM_P2
2022/11/28 00:01:05;;;;;;;4.37;3.30;;;10.60;99.90;;;;;;5056909;28;20223;-65
2022/11/28 00:03:31;;;;;;;3.93;2.97;;;10.50;99.90;;;;;;5101098;28;20243;-65
2022/11/28 00:06:03;;;;;;;3.07;2.67;;;10.60;99.90;;;;;;5060625;28;20601;-65
2022/11/28 00:08:29;;;;;;;4.23;2.90;;;10.60;99.90;;;;;;5064903;28;20193;-65
2022/11/28 00:10:54;;;;;;;3.87;2.97;;;10.70;99.90;;;;;;5055483;28;20186;-65
2022/11/28 00:13:20;;;;;;;5.03;2.63;;;10.70;99.90;;;;;;5060989;28;20202;-65
2022/11/28 00:16:01;;;;;;;4.10;3.37;;;10.70;99.90;;;;;;5055499;28;20225;-65
2022/11/28 00:18:27;;;;;;;3.20;2.90;;;10.60;99.90;;;;;;5053852;28;20288;-65
2022/11/28 00:21:03;;;;;;;5.63;3.40;;;10.50;99.90;;;;;;5067485;28;20204;-65
2022/11/28 00:23:29;;;;;;;7.00;3.70;;;10.50;99.90;;;;;;5060838;28;20185;-64
2022/11/28 00:25:59;;;;;;;5.13;2.70;;;10.50;99.90;;;;;;5062466;28;20186;-64
2022/11/28 00:28:25;;;;;;;5.27;3.73;;;10.50;99.90;;;;;;5068918;28;20562;-65
2022/11/28 00:30:51;;;;;;;10.37;4.03;;;10.50;99.90;;;;;;5055202;28;20190;-64
2022/11/28 00:33:16;;;;;;;7.10;4.20;;;10.50;99.90;;;;;;5054125;28;20194;-65
2022/11/28 00:35:42;;;;;;;8.50;4.33;;;10.40;99.90;;;;;;5037246;28;20221;-64
2022/11/28 00:38:08;;;;;;;8.20;5.07;;;10.30;99.90;;;;;;5071473;28;20205;-64
2022/11/28 00:40:33;;;;;;;4.17;3.53;;;10.20;99.90;;;;;;5063313;28;20190;-64
2022/11/28 00:42:59;;;;;;;3.57;2.83;;;10.10;99.90;;;;;;5099967;28;20197;-64
2022/11/28 00:45:24;;;;;;;5.90;3.67;;;10.20;99.90;;;;;;5062695;28;20233;-64
2022/11/28 00:47:50;;;;;;;9.20;4.57;;;10.10;99.90;;;;;;5070990;28;20223;-64
2022/11/28 00:50:16;;;;;;;5.70;3.90;;;10.00;99.90;;;;;;5059559;28;20181;-64
2022/11/28 00:52:41;;;;;;;4.50;3.03;;;10.00;99.90;;;;;;5053607;28;20198;-64
2022/11/28 00:55:08;;;;;;;5.00;3.77;;;9.90;99.90;;;;;;5086331;28;20182;-64
2022/11/28 00:57:33;;;;;;;7.90;4.30;;;9.80;99.90;;;;;;5058032;28;20202;-64
2022/11/28 00:59:59;;;;;;;8.13;3.47;;;9.80;99.90;;;;;;5063080;28;20196;-64
2022/11/28 01:02:25;;;;;;;4.97;4.00;;;9.80;99.90;;;;;;5065145;28;20597;-64
2022/11/28 01:04:50;;;;;;;4.77;3.73;;;9.80;99.90;;;;;;5053806;28;20582;-64
2022/11/28 01:07:16;;;;;;;6.23;3.83;;;9.80;99.90;;;;;;5056016;28;20247;-64
2022/11/28 01:09:42;;;;;;;3.93;3.57;;;9.80;99.90;;;;;;5058268;28;20192;-64
2022/11/28 01:12:07;;;;;;;6.83;3.37;;;9.80;99.90;;;;;;5097345;28;20250;-63
2022/11/28 01:14:33;;;;;;;9.37;3.87;;;9.90;99.90;;;;;;5054771;28;20189;-64
2022/11/28 01:16:58;;;;;;;4.20;3.37;;;9.80;99.90;;;;;;5053774;28;20635;-64
2022/11/28 01:19:24;;;;;;;6.53;4.07;;;9.80;99.90;;;;;;5069625;28;20232;-64
2022/11/28 01:21:50;;;;;;;6.83;3.73;;;9.70;99.90;;;;;;5066257;28;20196;-64
2022/11/28 01:24:16;;;;;;;6.27;3.57;;;9.70;99.90;;;;;;5073161;28;20234;-64
2022/11/28 01:26:43;;;;;;;5.03;3.57;;;9.70;99.90;;;;;;5058370;28;20748;-64
2022/11/28 01:29:09;;;;;;;4.23;2.93;;;9.70;99.90;;;;;;5064177;28;20192;-64
2022/11/28 01:31:35;;;;;;;5.77;3.37;;;9.60;99.90;;;;;;5055791;28;20186;-64
2022/11/28 01:34:01;;;;;;;4.90;3.40;;;9.70;99.90;;;;;;5057874;28;20197;-64
2022/11/28 01:36:28;;;;;;;5.43;3.73;;;9.70;99.90;;;;;;5065247;28;20194;-65
2022/11/28 01:38:57;;;;;;;5.00;3.63;;;9.60;99.90;;;;;;5057240;28;20205;-65
2022/11/28 01:41:25;;;;;;;3.60;3.17;;;9.60;99.90;;;;;;5055573;28;20716;-65
2022/11/28 01:44:14;;;;;;;5.80;3.53;;;9.60;99.90;;;;;;5056039;28;20192;-63
2022/11/28 01:46:41;;;;;;;5.20;3.73;;;9.60;99.90;;;;;;5054355;28;20265;-65
2022/11/28 01:49:13;;;;;;;7.00;3.87;;;9.60;99.90;;;;;;5085810;28;20186;-65
2022/11/28 01:51:45;;;;;;;5.30;4.20;;;9.60;99.90;;;;;;5053527;28;20178;-65
2022/11/28 01:54:11;;;;;;;4.33;3.60;;;9.50;99.90;;;;;;5064950;28;20711;-65
2022/11/28 01:56:43;;;;;;;6.73;4.57;;;9.50;99.90;;;;;;5056147;28;20564;-65
2022/11/28 01:59:12;;;;;;;5.43;3.80;;;9.60;99.90;;;;;;5061380;28;20202;-62
2022/11/28 02:01:38;;;;;;;5.33;3.90;;;9.60;99.90;;;;;;5059105;28;20189;-64
2022/11/28 02:04:04;;;;;;;4.50;3.80;;;9.60;99.90;;;;;;5052524;28;20201;-63
2022/11/28 02:06:31;;;;;;;5.20;4.27;;;9.50;99.90;;;;;;5085671;28;20624;-63
2022/11/28 02:08:57;;;;;;;6.87;3.80;;;9.50;99.90;;;;;;5053021;28;20186;-64
2022/11/28 02:11:37;;;;;;;5.43;4.83;;;9.50;99.90;;;;;;5094253;28;20280;-63
2022/11/28 02:14:22;;;;;;;7.17;4.60;;;9.50;99.90;;;;;;5052727;28;20219;-63
2022/11/28 02:17:10;;;;;;;8.03;5.03;;;9.60;99.90;;;;;;5057217;28;20269;-63
2022/11/28 02:20:01;;;;;;;6.90;4.57;;;9.60;99.90;;;;;;5047172;28;20260;-63
2022/11/28 02:22:32;;;;;;;7.67;4.87;;;9.70;99.90;;;;;;5066558;28;20638;-63
2022/11/28 02:25:07;;;;;;;10.57;5.47;;;9.60;99.90;;;;;;5056414;28;20177;-63
2022/11/28 02:27:50;;;;;;;6.60;4.67;;;9.60;99.90;;;;;;5059426;28;20192;-63
2022/11/28 02:30:37;;;;;;;7.17;4.70;;;9.50;99.90;;;;;;5053229;28;20192;-63
2022/11/28 02:33:14;;;;;;;8.03;4.93;;;9.60;99.90;;;;;;5052944;28;20178;-63
2022/11/28 02:35:54;;;;;;;5.70;4.30;;;9.60;99.90;;;;;;5056384;28;20180;-64
2022/11/28 02:38:34;;;;;;;5.77;3.93;;;9.50;99.90;;;;;;5057156;28;20216;-64
2022/11/28 02:41:32;;;;;;;6.93;4.87;;;9.50;99.90;;;;;;5051766;28;20265;-66
2022/11/28 02:44:07;;;;;;;5.63;4.03;;;9.60;99.90;;;;;;5057215;28;20268;-65
2022/11/28 02:46:36;;;;;;;5.10;4.07;;;9.60;99.90;;;;;;5056582;28;20187;-64
2022/11/28 02:49:05;;;;;;;5.50;4.10;;;9.70;99.90;;;;;;5060271;28;20185;-63
2022/11/28 02:51:42;;;;;;;7.37;4.67;;;9.60;99.90;;;;;;5063136;28;20181;-63
2022/11/28 02:54:10;;;;;;;7.37;4.93;;;9.60;99.90;;;;;;5065255;28;20177;-63
2022/11/28 02:56:36;;;;;;;6.00;3.70;;;9.60;99.90;;;;;;5053078;28;20538;-63
2022/11/28 02:59:02;;;;;;;6.20;3.90;;;9.60;99.90;;;;;;5053632;28;20263;-63
2022/11/28 03:01:35;;;;;;;7.17;4.60;;;9.70;99.90;;;;;;5066028;28;20215;-63
2022/11/28 03:04:06;;;;;;;6.90;5.10;;;9.60;99.90;;;;;;5071844;28;20181;-63
2022/11/28 03:06:38;;;;;;;6.97;4.93;;;9.70;99.90;;;;;;5066790;28;20234;-64
2022/11/28 03:09:30;;;;;;;5.70;4.93;;;9.70;99.90;;;;;;5071764;28;20640;-63
2022/11/28 03:12:17;;;;;;;5.67;4.67;;;9.70;99.90;;;;;;5055753;28;20184;-63
2022/11/28 03:14:49;;;;;;;6.93;4.80;;;9.70;99.90;;;;;;5065257;28;20185;-64
2022/11/28 03:17:37;;;;;;;11.10;5.77;;;9.70;99.90;;;;;;5069998;28;20686;-63
2022/11/28 03:20:14;;;;;;;6.63;4.53;;;9.60;99.90;;;;;;5058221;28;20189;-64
2022/11/28 03:22:57;;;;;;;6.67;4.67;;;9.60;99.90;;;;;;5067272;28;20196;-62
2022/11/28 03:25:29;;;;;;;6.50;4.97;;;9.70;99.90;;;;;;5064576;28;20190;-64
2022/11/28 03:28:17;;;;;;;5.80;4.30;;;9.70;99.90;;;;;;5059496;28;20189;-64
2022/11/28 03:30:51;;;;;;;5.67;4.23;;;9.70;99.90;;;;;;5052317;28;20178;-64
2022/11/28 03:33:20;;;;;;;6.90;4.73;;;9.70;99.90;;;;;;5066047;28;20192;-64
2022/11/28 03:35:50;;;;;;;7.10;5.00;;;9.70;99.90;;;;;;5052998;28;20175;-63
2022/11/28 03:38:26;;;;;;;5.97;4.47;;;9.70;99.90;;;;;;5052317;28;20209;-63
2022/11/28 03:40:55;;;;;;;6.00;4.73;;;9.60;99.90;;;;;;5051769;28;20182;-63
2022/11/28 03:43:26;;;;;;;8.33;5.13;;;9.60;99.90;;;;;;5058862;28;20272;-64
2022/11/28 03:45:57;;;;;;;7.47;4.77;;;9.70;99.90;;;;;;5052076;28;20224;-64
2022/11/28 03:48:33;;;;;;;6.20;4.73;;;9.60;99.90;;;;;;5052220;28;20198;-64
2022/11/28 03:51:26;;;;;;;5.00;3.80;;;9.60;99.90;;;;;;5059647;28;20181;-64
2022/11/28 03:54:01;;;;;;;5.93;4.60;;;9.60;99.90;;;;;;5059772;28;20197;-63
2022/11/28 03:56:51;;;;;;;4.97;4.43;;;9.70;99.90;;;;;;5058798;28;20230;-64
2022/11/28 03:59:27;;;;;;;4.37;3.97;;;9.70;99.90;;;;;;5057094;28;20202;-64
2022/11/28 04:02:13;;;;;;;8.23;4.20;;;9.70;99.90;;;;;;5061986;28;20177;-64
2022/11/28 04:05:02;;;;;;;6.20;4.20;;;9.70;99.90;;;;;;5061599;28;20173;-64
2022/11/28 04:07:42;;;;;;;4.17;3.77;;;9.70;99.90;;;;;;5059375;28;20307;-64
2022/11/28 04:10:37;;;;;;;5.80;4.23;;;9.70;99.90;;;;;;5067816;28;20178;-64
2022/11/28 04:13:11;;;;;;;6.23;4.00;;;9.70;99.90;;;;;;5054555;28;20201;-64
2022/11/28 04:15:56;;;;;;;6.80;4.73;;;9.70;99.90;;;;;;5061535;28;20189;-64
2022/11/28 04:18:33;;;;;;;7.23;4.97;;;9.70;99.90;;;;;;5068736;28;20202;-64
2022/11/28 04:21:07;;;;;;;4.83;4.03;;;9.80;99.90;;;;;;5057056;28;20221;-64
2022/11/28 04:23:36;;;;;;;5.30;4.27;;;9.80;99.90;;;;;;5073253;28;20177;-64
2022/11/28 04:26:40;;;;;;;8.27;5.23;;;9.90;99.90;;;;;;5071955;28;20181;-65
2022/11/28 04:29:09;;;;;;;4.80;4.20;;;9.90;99.90;;;;;;5061736;28;20177;-65
2022/11/28 04:31:38;;;;;;;5.90;3.77;;;9.80;99.90;;;;;;5059927;28;20181;-65
2022/11/28 04:34:07;;;;;;;6.40;4.57;;;9.80;99.90;;;;;;5055009;28;20174;-64
2022/11/28 04:36:35;;;;;;;6.00;4.20;;;9.80;99.90;;;;;;5063772;28;20182;-65
2022/11/28 04:39:03;;;;;;;6.60;4.47;;;9.70;99.90;;;;;;5054786;28;20849;-64
2022/11/28 04:41:38;;;;;;;6.77;5.47;;;9.80;99.90;;;;;;5064466;28;20186;-64
2022/11/28 04:44:15;;;;;;;6.93;5.30;;;9.80;99.90;;;;;;5055603;28;20177;-64
2022/11/28 04:46:47;;;;;;;6.73;5.20;;;9.80;99.90;;;;;;5054829;28;20204;-65
2022/11/28 04:49:13;;;;;;;9.73;5.43;;;9.70;99.90;;;;;;5055068;28;20190;-64
2022/11/28 04:51:58;;;;;;;8.83;4.93;;;9.70;99.90;;;;;;5059836;28;20190;-64
2022/11/28 04:54:28;;;;;;;7.00;4.67;;;9.80;99.90;;;;;;5059903;28;20186;-66
2022/11/28 04:57:20;;;;;;;7.23;5.17;;;9.70;99.90;;;;;;5067735;28;20178;-65
2022/11/28 04:59:48;;;;;;;8.93;6.10;;;9.80;99.90;;;;;;5052967;28;20240;-64
2022/11/28 05:02:16;;;;;;;9.77;5.37;;;9.90;99.90;;;;;;5057551;28;20212;-64
2022/11/28 05:04:43;;;;;;;10.67;5.87;;;9.80;99.90;;;;;;5057449;28;20178;-64
2022/11/28 05:07:09;;;;;;;10.83;6.10;;;9.70;99.90;;;;;;5073563;28;20230;-64
2022/11/28 05:09:35;;;;;;;8.20;6.20;;;9.70;99.90;;;;;;5067209;28;20193;-65
2022/11/28 05:12:01;;;;;;;8.27;6.00;;;9.70;99.90;;;;;;5052945;28;20219;-64
2022/11/28 05:14:27;;;;;;;10.37;7.33;;;9.80;99.90;;;;;;5061673;28;20708;-65
2022/11/28 05:16:53;;;;;;;9.70;6.20;;;9.70;99.90;;;;;;5054441;28;20264;-65
2022/11/28 05:19:18;;;;;;;11.67;7.20;;;9.70;99.90;;;;;;5082552;28;20193;-65
2022/11/28 05:21:44;;;;;;;10.70;6.23;;;9.70;99.90;;;;;;5059403;28;20188;-65
2022/11/28 05:24:10;;;;;;;8.77;6.13;;;9.80;99.90;;;;;;5062044;28;20196;-65
2022/11/28 05:26:36;;;;;;;12.40;6.67;;;9.90;99.90;;;;;;5067981;28;20698;-64
2022/11/28 05:29:03;;;;;;;9.70;7.13;;;10.10;99.90;;;;;;5056995;28;20229;-63
2022/11/28 05:31:29;;;;;;;10.80;6.93;;;10.10;99.90;;;;;;5056227;28;20274;-64
2022/11/28 05:33:55;;;;;;;10.83;7.33;;;10.10;99.90;;;;;;5054253;28;20251;-64
2022/11/28 05:36:22;;;;;;;9.33;6.97;;;10.00;99.90;;;;;;5055370;28;20190;-65
2022/11/28 05:38:48;;;;;;;9.23;6.20;;;9.80;99.90;;;;;;5057044;28;20292;-64
2022/11/28 05:41:23;;;;;;;10.80;7.37;;;9.90;99.90;;;;;;5053551;28;20268;-64
2022/11/28 05:43:49;;;;;;;13.67;7.47;;;9.90;99.90;;;;;;5058543;28;20185;-65
2022/11/28 05:46:15;;;;;;;11.57;7.43;;;9.80;99.90;;;;;;5063000;28;20212;-64
2022/11/28 05:48:40;;;;;;;10.53;7.40;;;9.70;99.90;;;;;;5064084;28;20261;-64
2022/11/28 05:51:06;;;;;;;12.57;8.40;;;9.70;99.90;;;;;;5057439;28;20213;-64
2022/11/28 05:53:32;;;;;;;13.30;7.87;;;9.80;99.90;;;;;;5055402;28;20186;-63
2022/11/28 05:55:58;;;;;;;13.00;8.57;;;9.90;99.90;;;;;;5057049;28;20566;-64
2022/11/28 05:58:23;;;;;;;17.17;9.23;;;9.90;99.90;;;;;;5068718;28;20220;-64
2022/11/28 06:00:49;;;;;;;13.57;8.27;;;10.00;99.90;;;;;;5071165;28;20185;-64
2022/11/28 06:03:15;;;;;;;15.03;8.87;;;10.00;99.90;;;;;;5060150;28;20198;-64
2022/11/28 06:05:42;;;;;;;11.83;7.80;;;10.00;99.90;;;;;;5063462;28;20726;-63
2022/11/28 06:08:12;;;;;;;12.50;8.33;;;10.00;99.90;;;;;;5058921;28;20190;-64
2022/11/28 06:10:38;;;;;;;15.63;8.93;;;9.90;99.90;;;;;;5072335;28;20186;-64
2022/11/28 06:13:03;;;;;;;13.63;9.20;;;9.90;99.90;;;;;;5065095;28;20672;-65
2022/11/28 06:15:31;;;;;;;12.10;7.83;;;10.10;99.90;;;;;;5066745;28;20186;-64
2022/11/28 06:17:56;;;;;;;13.87;8.83;;;10.10;99.90;;;;;;5055358;28;20611;-64
2022/11/28 06:20:22;;;;;;;11.60;8.77;;;10.00;99.90;;;;;;5065517;28;20197;-63
2022/11/28 06:22:48;;;;;;;15.43;9.17;;;10.00;99.90;;;;;;5058465;28;20182;-63
2022/11/28 06:25:13;;;;;;;14.87;8.53;;;9.90;99.90;;;;;;5052128;28;20635;-64
2022/11/28 06:27:39;;;;;;;12.80;8.87;;;10.00;99.90;;;;;;5056212;28;20197;-64
2022/11/28 06:30:06;;;;;;;15.97;9.37;;;10.10;99.90;;;;;;5066730;28;20264;-64
2022/11/28 06:32:31;;;;;;;14.53;8.90;;;10.10;99.90;;;;;;5053127;28;20181;-64
2022/11/28 06:34:57;;;;;;;16.20;9.37;;;10.20;99.90;;;;;;5054400;28;20242;-64
2022/11/28 06:37:23;;;;;;;11.93;9.00;;;10.20;99.90;;;;;;5058700;28;20263;-64
2022/11/28 06:39:50;;;;;;;19.13;10.87;;;10.40;99.90;;;;;;5071219;28;20193;-64
2022/11/28 06:42:16;;;;;;;16.43;9.87;;;10.30;99.90;;;;;;5058935;28;20190;-64
2022/11/28 06:44:42;;;;;;;15.13;9.17;;;10.30;99.90;;;;;;5054692;28;20285;-64
2022/11/28 06:47:08;;;;;;;16.77;9.03;;;10.30;99.90;;;;;;5054193;28;20260;-64
2022/11/28 06:49:35;;;;;;;18.50;10.40;;;10.30;99.90;;;;;;5052343;28;20229;-64
2022/11/28 06:52:01;;;;;;;19.87;10.80;;;10.20;99.90;;;;;;5052260;28;20269;-65
2022/11/28 06:54:27;;;;;;;18.13;10.23;;;10.30;99.90;;;;;;5053500;28;20217;-65
2022/11/28 06:56:53;;;;;;;15.23;9.27;;;10.30;99.90;;;;;;5068756;28;20185;-65
2022/11/28 06:59:18;;;;;;;17.30;10.10;;;10.30;99.90;;;;;;5057185;28;20295;-65
2022/11/28 07:01:44;;;;;;;17.17;10.03;;;10.10;99.90;;;;;;5066502;28;20193;-65
2022/11/28 07:04:10;;;;;;;15.17;9.57;;;10.10;99.90;;;;;;5053966;28;20200;-64
2022/11/28 07:06:36;;;;;;;20.10;11.43;;;10.20;99.90;;;;;;5054800;28;20192;-63
2022/11/28 07:09:01;;;;;;;18.00;9.83;;;10.20;99.90;;;;;;5050789;28;20834;-64
2022/11/28 07:11:29;;;;;;;14.77;9.23;;;10.30;99.90;;;;;;5058227;28;20250;-63
2022/11/28 07:13:59;;;;;;;12.13;8.30;;;10.30;99.90;;;;;;5052895;28;20651;-63
2022/11/28 07:16:28;;;;;;;15.80;10.33;;;10.30;99.90;;;;;;5054792;28;20268;-64
2022/11/28 07:18:54;;;;;;;13.63;8.93;;;10.30;99.90;;;;;;5060351;28;20204;-63
2022/11/28 07:21:20;;;;;;;14.00;8.30;;;10.30;99.90;;;;;;5069475;28;20330;-64
2022/11/28 07:23:47;;;;;;;14.60;8.77;;;10.40;99.90;;;;;;5060639;28;20265;-62
2022/11/28 07:26:15;;;;;;;11.33;7.97;;;10.30;99.90;;;;;;5052432;28;20182;-63
2022/11/28 07:28:41;;;;;;;12.80;7.03;;;10.30;99.90;;;;;;5057675;28;20224;-63
2022/11/28 07:31:11;;;;;;;13.70;7.83;;;10.20;99.90;;;;;;5051682;28;20186;-64
2022/11/28 07:33:38;;;;;;;14.23;7.73;;;10.20;99.90;;;;;;5068940;28;20200;-62
2022/11/28 07:36:12;;;;;;;14.83;7.83;;;10.20;99.90;;;;;;5063675;28;20182;-64
2022/11/28 07:38:37;;;;;;;15.80;8.30;;;10.00;99.90;;;;;;5064612;28;20205;-63
2022/11/28 07:41:06;;;;;;;10.60;7.77;;;10.10;99.90;;;;;;5072848;28;20181;-63
2022/11/28 07:43:32;;;;;;;13.97;8.37;;;10.10;99.90;;;;;;5062745;28;20221;-62
2022/11/28 07:45:58;;;;;;;14.63;8.70;;;10.30;99.90;;;;;;5074075;28;20173;-63
2022/11/28 07:48:23;;;;;;;12.47;7.80;;;10.20;99.90;;;;;;5054618;28;20194;-63
2022/11/28 07:50:49;;;;;;;12.18;7.13;;;10.30;99.90;;;;;;5059147;28;20268;-62
2022/11/28 07:53:15;;;;;;;15.82;7.93;;;10.20;99.90;;;;;;5063425;28;20182;-63
2022/11/28 07:55:40;;;;;;;13.68;7.90;;;10.30;99.90;;;;;;5078786;28;20656;-63
2022/11/28 07:58:06;;;;;;;16.23;8.40;;;10.40;99.90;;;;;;5065493;28;20750;-62
2022/11/28 08:00:32;;;;;;;10.82;7.80;;;10.30;99.90;;;;;;5054260;28;20281;-62
2022/11/28 08:02:58;;;;;;;14.45;8.95;;;10.50;99.90;;;;;;5059513;28;20189;-62
2022/11/28 08:05:24;;;;;;;14.80;8.23;;;10.50;99.90;;;;;;5075953;28;20189;-62
2022/11/28 08:07:50;;;;;;;15.85;9.85;;;10.40;99.90;;;;;;5072160;28;20191;-64
2022/11/28 08:10:16;;;;;;;14.43;7.65;;;10.40;99.90;;;;;;5058608;28;20563;-62
2022/11/28 08:12:42;;;;;;;13.82;9.05;;;10.50;99.90;;;;;;5073942;28;20277;-62
2022/11/28 08:15:08;;;;;;;16.73;10.75;;;10.70;99.90;;;;;;5074211;28;20182;-62
2022/11/28 08:17:34;;;;;;;15.75;9.73;;;10.60;99.90;;;;;;5074719;28;21108;-62
2022/11/28 08:20:00;;;;;;;13.20;8.43;;;10.50;99.90;;;;;;5070342;28;20190;-63
2022/11/28 08:22:26;;;;;;;15.88;9.63;;;10.50;99.90;;;;;;5065301;28;20650;-61
2022/11/28 08:24:52;;;;;;;17.42;9.75;;;10.60;99.90;;;;;;5066326;28;20248;-63
2022/11/28 08:27:18;;;;;;;16.85;10.73;;;10.50;99.90;;;;;;5069979;28;20186;-63
2022/11/28 08:29:44;;;;;;;20.13;11.10;;;10.40;99.90;;;;;;5077122;28;20178;-64
2022/11/28 08:32:09;;;;;;;14.98;10.23;;;10.50;99.90;;;;;;5061587;28;20264;-63
2022/11/28 08:34:35;;;;;;;17.02;9.30;;;10.60;99.90;;;;;;5061262;28;20538;-62
2022/11/28 08:37:01;;;;;;;16.38;9.30;;;10.70;99.90;;;;;;5055613;28;20206;-63
2022/11/28 08:39:26;;;;;;;15.18;9.48;;;10.60;99.90;;;;;;5065687;28;20186;-63
2022/11/28 08:41:56;;;;;;;26.35;10.10;;;10.70;99.90;;;;;;5054695;28;20234;-63
2022/11/28 08:44:22;;;;;;;18.25;9.40;;;10.70;99.90;;;;;;5054894;28;20186;-63
2022/11/28 08:46:47;;;;;;;17.25;9.95;;;10.50;99.90;;;;;;5063053;28;20193;-64
2022/11/28 08:49:13;;;;;;;19.88;10.13;;;10.50;99.90;;;;;;5070475;28;20193;-63
2022/11/28 08:51:39;;;;;;;16.27;9.18;;;10.70;99.90;;;;;;5070620;28;20192;-62
2022/11/28 08:54:04;;;;;;;22.97;11.20;;;10.80;99.90;;;;;;5057851;28;20189;-62
2022/11/28 08:56:30;;;;;;;20.15;9.68;;;11.00;99.90;;;;;;5058831;28;20270;-64
2022/11/28 08:58:56;;;;;;;19.77;10.02;;;11.10;99.90;;;;;;5071044;28;20210;-64
2022/11/28 09:01:25;;;;;;;18.65;9.48;;;11.00;99.90;;;;;;5066069;28;20216;-64
2022/11/28 09:03:52;;;;;;;18.40;9.50;;;11.10;99.90;;;;;;5052051;28;21050;-64
2022/11/28 09:06:19;;;;;;;16.88;10.20;;;11.00;99.90;;;;;;5065359;28;20190;-64
2022/11/28 09:08:46;;;;;;;17.10;10.25;;;10.90;99.90;;;;;;5067221;28;20176;-62
2022/11/28 09:11:14;;;;;;;15.20;8.02;;;11.10;99.90;;;;;;5069132;28;20530;-63
2022/11/28 09:13:40;;;;;;;17.58;9.88;;;11.10;99.90;;;;;;5074308;28;20197;-63
2022/11/28 09:16:06;;;;;;;15.18;8.88;;;11.10;99.90;;;;;;5061700;28;20207;-63
2022/11/28 09:18:32;;;;;;;15.48;9.85;;;11.10;99.90;;;;;;5069020;28;20205;-64
2022/11/28 09:21:04;;;;;;;20.95;9.95;;;11.10;99.90;;;;;;5076756;28;20765;-65
2022/11/28 09:23:30;;;;;;;18.67;9.38;;;11.20;99.90;;;;;;5062341;28;20174;-64
2022/11/28 09:25:56;;;;;;;16.63;10.15;;;11.30;99.90;;;;;;5065448;28;20234;-64
2022/11/28 09:28:22;;;;;;;19.88;10.18;;;11.20;99.90;;;;;;5070157;28;20715;-64
2022/11/28 09:30:48;;;;;;;18.55;9.73;;;11.20;99.90;;;;;;5077207;28;20173;-64
2022/11/28 09:33:15;;;;;;;17.88;10.25;;;11.30;99.90;;;;;;5074834;28;20653;-64
2022/11/28 09:35:41;;;;;;;15.82;9.27;;;11.20;99.90;;;;;;5067496;28;20185;-64
2022/11/28 09:38:06;;;;;;;17.70;10.05;;;11.30;99.90;;;;;;5060738;28;20683;-63
2022/11/28 09:40:42;;;;;;;19.35;9.73;;;11.20;99.90;;;;;;5085708;28;20329;-63
2022/11/28 09:43:36;;;;;;;21.25;9.63;;;11.20;99.90;;;;;;5062250;28;20653;-63
2022/11/28 09:46:04;;;;;;;23.08;11.45;;;11.40;99.90;;;;;;5056072;28;20643;-63
2022/11/28 09:48:38;;;;;;;20.70;10.07;;;11.40;99.90;;;;;;5073302;28;20275;-63
2022/11/28 09:51:32;;;;;;;16.33;8.82;;;11.30;99.90;;;;;;5076383;28;20173;-63
2022/11/28 09:54:16;;;;;;;19.35;9.05;;;11.40;99.90;;;;;;5073456;28;20177;-64
2022/11/28 09:56:46;;;;;;;15.32;8.75;;;11.40;99.90;;;;;;5070495;28;20221;-63
2022/11/28 09:59:23;;;;;;;17.38;8.38;;;11.60;99.90;;;;;;5084518;28;20209;-63
2022/11/28 10:02:00;;;;;;;17.45;9.43;;;11.60;99.90;;;;;;5067731;28;20239;-63
2022/11/28 10:04:39;;;;;;;18.52;9.68;;;11.60;99.90;;;;;;5059199;28;20194;-64
2022/11/28 10:07:29;;;;;;;16.73;9.32;;;11.60;99.90;;;;;;5079443;28;21099;-64
2022/11/28 10:09:59;;;;;;;16.35;9.63;;;11.70;99.90;;;;;;5073347;28;20170;-63
2022/11/28 10:13:06;;;;;;;16.13;9.60;;;11.70;99.90;;;;;;5069477;28;20247;-64
2022/11/28 10:15:57;;;;;;;17.92;9.90;;;11.70;99.90;;;;;;5055501;28;20194;-63
2022/11/28 10:18:59;;;;;;;18.98;8.95;;;11.90;99.90;;;;;;5054714;28;20236;-63
2022/11/28 10:21:27;;;;;;;14.75;8.43;;;12.00;99.90;;;;;;5066312;28;20184;-63
2022/11/28 10:24:03;;;;;;;14.68;8.02;;;12.10;99.90;;;;;;5059652;28;20182;-64
2022/11/28 10:26:40;;;;;;;12.93;8.32;;;12.00;99.90;;;;;;5064467;28;20616;-63
2022/11/28 10:29:24;;;;;;;12.32;8.65;;;12.00;99.90;;;;;;5059145;28;20600;-63
2022/11/28 10:31:54;;;;;;;14.93;9.50;;;11.90;99.90;;;;;;5052839;28;20260;-62
2022/11/28 10:34:44;;;;;;;16.65;9.07;;;11.90;99.90;;;;;;5065725;28;20699;-63
2022/11/28 10:37:19;;;;;;;12.35;8.50;;;11.80;99.90;;;;;;5061579;28;20231;-63
2022/11/28 10:39:44;;;;;;;13.43;7.93;;;11.70;99.90;;;;;;5064470;28;20180;-63
2022/11/28 10:42:31;;;;;;;13.73;8.02;;;11.90;99.90;;;;;;5069665;28;20188;-63
2022/11/28 10:45:25;;;;;;;18.38;10.05;;;11.90;99.90;;;;;;5053277;28;20249;-63
2022/11/28 10:48:25;;;;;;;17.13;8.35;;;12.10;99.90;;;;;;5055861;28;20635;-63
2022/11/28 10:51:27;;;;;;;21.02;9.50;;;12.20;99.90;;;;;;5052405;28;20193;-63
2022/11/28 10:54:18;;;;;;;13.57;7.85;;;12.20;99.90;;;;;;5066976;28;20169;-63
2022/11/28 10:56:55;;;;;;;19.00;7.97;;;12.20;99.90;;;;;;5052091;28;20186;-63
2022/11/28 10:59:54;;;;;;;16.02;7.57;;;12.30;99.90;;;;;;5064973;28;20689;-63
2022/11/28 11:02:29;;;;;;;11.60;7.28;;;12.40;99.90;;;;;;5063040;28;20181;-63
2022/11/28 11:04:57;;;;;;;13.23;8.65;;;12.30;99.90;;;;;;5058570;28;20637;-63
2022/11/28 11:07:25;;;;;;;14.48;8.68;;;12.50;99.90;;;;;;5059549;28;20181;-63
2022/11/28 11:09:51;;;;;;;17.42;7.90;;;12.50;99.90;;;;;;5056585;28;20231;-63
2022/11/28 11:12:25;;;;;;;15.70;8.65;;;12.50;99.90;;;;;;5064452;28;20246;-62
2022/11/28 11:14:51;;;;;;;14.50;7.97;;;12.50;99.90;;;;;;5063995;28;20627;-63
2022/11/28 11:17:25;;;;;;;20.25;9.45;;;12.50;99.90;;;;;;5064899;28;20178;-63
2022/11/28 11:19:50;;;;;;;14.07;8.43;;;12.50;99.90;;;;;;5064443;28;20627;-62
2022/11/28 11:22:30;;;;;;;18.73;8.13;;;12.50;99.90;;;;;;5061373;28;20208;-63
2022/11/28 11:25:11;;;;;;;21.10;9.15;;;12.50;99.90;;;;;;5069262;28;20177;-63
2022/11/28 11:27:45;;;;;;;14.23;7.93;;;12.60;99.90;;;;;;5063058;28;20243;-62
2022/11/28 11:30:28;;;;;;;17.20;8.30;;;12.40;99.90;;;;;;5069520;28;20182;-63
2022/11/28 11:33:00;;;;;;;14.90;8.48;;;12.40;99.90;;;;;;5069754;28;20583;-63
2022/11/28 11:35:28;;;;;;;22.55;9.38;;;12.30;99.90;;;;;;5069163;28;20181;-62
2022/11/28 11:38:25;;;;;;;16.70;8.77;;;12.20;99.90;;;;;;5068815;28;20530;-63
2022/11/28 11:40:51;;;;;;;16.40;7.85;;;12.40;99.90;;;;;;5071409;28;20260;-63
2022/11/28 11:43:29;;;;;;;17.05;8.50;;;12.50;99.90;;;;;;5074066;28;20197;-62
2022/11/28 11:46:06;;;;;;;14.07;8.10;;;12.60;99.90;;;;;;5069744;28;20228;-63
2022/11/28 11:48:47;;;;;;;17.90;8.52;;;12.60;99.90;;;;;;5067890;28;20884;-62
2022/11/28 11:51:35;;;;;;;15.95;7.88;;;12.70;99.90;;;;;;5056072;28;20643;-63
2022/11/28 11:54:01;;;;;;;15.98;7.53;;;13.00;99.90;;;;;;5061146;28;20178;-63
2022/11/28 11:56:36;;;;;;;11.45;7.05;;;13.10;99.90;;;;;;5065073;28;20177;-63
2022/11/28 11:59:10;;;;;;;13.02;7.32;;;13.00;99.90;;;;;;5065618;28;20288;-65
2022/11/28 12:01:38;;;;;;;15.77;8.00;;;13.00;99.90;;;;;;5068490;28;20268;-63
2022/11/28 12:04:12;;;;;;;12.70;7.88;;;13.00;99.90;;;;;;5060880;28;20193;-63
2022/11/28 12:06:45;;;;;;;15.25;8.45;;;13.00;99.90;;;;;;5061762;28;20185;-63
2022/11/28 12:09:42;;;;;;;10.35;6.35;;;12.90;99.90;;;;;;5060039;28;20178;-63
2022/11/28 12:12:17;;;;;;;12.27;6.90;;;12.90;99.90;;;;;;5063540;28;20173;-63
2022/11/28 12:14:43;;;;;;;16.77;6.65;;;12.90;99.90;;;;;;5059273;28;20227;-63
2022/11/28 12:17:41;;;;;;;15.70;7.82;;;12.80;99.90;;;;;;5062997;28;20188;-63
2022/11/28 12:20:27;;;;;;;14.23;6.78;;;12.70;99.90;;;;;;5065076;28;20547;-63
2022/11/28 12:23:08;;;;;;;17.55;7.60;;;12.60;99.90;;;;;;5055980;28;20192;-63
2022/11/28 12:25:48;;;;;;;16.67;8.43;;;12.50;99.90;;;;;;5054970;28;20310;-63
2022/11/28 12:28:39;;;;;;;15.10;7.95;;;12.60;99.90;;;;;;5062617;28;20185;-63
2022/11/28 12:31:43;;;;;;;18.02;7.28;;;12.60;99.90;;;;;;5063025;28;20178;-63
2022/11/28 12:34:29;;;;;;;14.05;7.93;;;12.80;99.90;;;;;;5055330;28;20198;-63
2022/11/28 12:36:58;;;;;;;17.38;8.50;;;12.90;99.90;;;;;;5063381;28;20243;-63
2022/11/28 12:39:41;;;;;;;14.75;8.32;;;12.90;99.90;;;;;;5062201;28;20208;-63
2022/11/28 12:42:22;;;;;;;13.20;7.38;;;13.00;99.90;;;;;;5063104;28;20185;-63
2022/11/28 12:45:08;;;;;;;15.70;9.00;;;12.90;99.90;;;;;;5059345;28;20182;-63
2022/11/28 12:47:37;;;;;;;14.52;7.82;;;12.90;99.90;;;;;;5058637;28;20182;-63
2022/11/28 12:50:15;;;;;;;16.58;7.82;;;12.90;99.90;;;;;;5054841;28;20670;-64
2022/11/28 12:52:41;;;;;;;12.80;8.18;;;12.80;99.90;;;;;;5054286;28;20170;-64
2022/11/28 12:55:16;;;;;;;14.90;7.97;;;12.70;99.90;;;;;;5071222;28;20177;-63
2022/11/28 12:57:47;;;;;;;13.20;7.97;;;12.80;99.90;;;;;;5071069;28;20196;-64
2022/11/28 13:00:23;;;;;;;19.33;8.40;;;12.80;99.90;;;;;;5058403;28;20475;-64
2022/11/28 13:02:57;;;;;;;16.70;7.95;;;12.90;99.90;;;;;;5054906;28;20186;-64
2022/11/28 13:05:43;;;;;;;14.75;8.98;;;12.90;99.90;;;;;;5060512;28;20212;-64
2022/11/28 13:08:27;;;;;;;18.77;9.13;;;12.80;99.90;;;;;;5060211;28;20646;-64